sensor_id;sensor_type;location;lat;lon;timestamp;P1;durP1;ratioP1;P2;durP2;ratioP2
78893;SDS011;68282;42.698;23.350;2023-04-16T00:00:36;7.28;;;3.72;;
78893;SDS011;68282;42.698;23.350;2023-04-16T00:03:01;6.53;;;4.00;;
78893;SDS011;68282;42.698;23.350;2023-04-16T00:05:27;8.98;;;4.13;;
78893;SDS011;68282;42.698;23.350;2023-04-16T00:07:52;8.27;;;4.20;;
78893;SDS011;68282;42.698;23.350;2023-04-16T00:10:18;7.40;;;3.92;;
78893;SDS011;68282;42.698;23.350;2023-04-16T00:12:43;9.18;;;4.03;;
78893;SDS011;68282;42.698;23.350;2023-04-16T00:15:09;9.23;;;4.38;;
78893;SDS011;68282;42.698;23.350;2023-04-16T00:17:34;9.45;;;4.65;;
78893;SDS011;68282;42.698;23.350;2023-04-16T00:20:00;8.20;;;3.78;;
78893;SDS011;68282;42.698;23.350;2023-04-16T00:22:25;8.45;;;3.88;;
78893;SDS011;68282;42.698;23.350;2023-04-16T00:24:51;7.65;;;3.83;;
78893;SDS011;68282;42.698;23.350;2023-04-16T00:27:17;8.02;;;3.75;;
78893;SDS011;68282;42.698;23.350;2023-04-16T00:29:43;7.22;;;3.90;;
78893;SDS011;68282;42.698;23.350;2023-04-16T00:32:09;6.28;;;3.55;;
78893;SDS011;68282;42.698;23.350;2023-04-16T00:34:34;7.65;;;3.42;;
78893;SDS011;68282;42.698;23.350;2023-04-16T00:36:59;7.05;;;4.00;;
78893;SDS011;68282;42.698;23.350;2023-04-16T00:39:25;9.02;;;4.63;;
78893;SDS011;68282;42.698;23.350;2023-04-16T00:41:50;8.05;;;4.15;;
78893;SDS011;68282;42.698;23.350;2023-04-16T00:44:16;14.93;;;7.18;;
78893;SDS011;68282;42.698;23.350;2023-04-16T00:46:41;12.55;;;8.32;;
78893;SDS011;68282;42.698;23.350;2023-04-16T00:49:07;11.93;;;6.88;;
78893;SDS011;68282;42.698;23.350;2023-04-16T00:51:34;15.50;;;7.05;;
78893;SDS011;68282;42.698;23.350;2023-04-16T00:53:59;9.95;;;5.78;;
78893;SDS011;68282;42.698;23.350;2023-04-16T00:56:26;11.82;;;5.32;;
78893;SDS011;68282;42.698;23.350;2023-04-16T00:58:53;9.82;;;5.18;;
78893;SDS011;68282;42.698;23.350;2023-04-16T01:01:19;10.38;;;5.35;;
78893;SDS011;68282;42.698;23.350;2023-04-16T01:03:45;9.65;;;4.85;;
78893;SDS011;68282;42.698;23.350;2023-04-16T01:06:12;8.82;;;5.00;;
78893;SDS011;68282;42.698;23.350;2023-04-16T01:08:38;11.23;;;5.70;;
78893;SDS011;68282;42.698;23.350;2023-04-16T01:11:04;8.43;;;4.97;;
78893;SDS011;68282;42.698;23.350;2023-04-16T01:13:30;8.82;;;4.82;;
78893;SDS011;68282;42.698;23.350;2023-04-16T01:15:56;9.60;;;5.07;;
78893;SDS011;68282;42.698;23.350;2023-04-16T01:18:22;9.90;;;4.30;;
78893;SDS011;68282;42.698;23.350;2023-04-16T01:20:48;10.43;;;5.20;;
78893;SDS011;68282;42.698;23.350;2023-04-16T01:23:15;8.35;;;4.60;;
78893;SDS011;68282;42.698;23.350;2023-04-16T01:25:42;6.22;;;4.13;;
78893;SDS011;68282;42.698;23.350;2023-04-16T01:28:08;9.77;;;4.25;;
78893;SDS011;68282;42.698;23.350;2023-04-16T01:30:33;11.60;;;4.85;;
78893;SDS011;68282;42.698;23.350;2023-04-16T01:32:59;9.98;;;4.45;;
78893;SDS011;68282;42.698;23.350;2023-04-16T01:35:25;6.85;;;3.97;;
78893;SDS011;68282;42.698;23.350;2023-04-16T01:37:51;8.65;;;4.35;;
78893;SDS011;68282;42.698;23.350;2023-04-16T01:40:16;7.63;;;3.78;;
78893;SDS011;68282;42.698;23.350;2023-04-16T01:42:42;7.72;;;4.35;;
78893;SDS011;68282;42.698;23.350;2023-04-16T01:45:08;8.45;;;4.18;;
78893;SDS011;68282;42.698;23.350;2023-04-16T01:47:33;8.18;;;4.22;;
78893;SDS011;68282;42.698;23.350;2023-04-16T01:49:59;7.53;;;3.67;;
78893;SDS011;68282;42.698;23.350;2023-04-16T01:52:25;8.38;;;3.67;;
78893;SDS011;68282;42.698;23.350;2023-04-16T01:54:50;6.72;;;4.22;;
78893;SDS011;68282;42.698;23.350;2023-04-16T01:57:16;10.88;;;4.18;;
78893;SDS011;68282;42.698;23.350;2023-04-16T01:59:41;7.75;;;3.47;;
78893;SDS011;68282;42.698;23.350;2023-04-16T02:02:10;7.07;;;3.97;;
78893;SDS011;68282;42.698;23.350;2023-04-16T02:04:40;7.72;;;3.60;;
78893;SDS011;68282;42.698;23.350;2023-04-16T02:07:07;8.25;;;3.88;;
78893;SDS011;68282;42.698;23.350;2023-04-16T02:09:34;9.88;;;3.75;;
78893;SDS011;68282;42.698;23.350;2023-04-16T02:12:00;8.15;;;3.63;;
78893;SDS011;68282;42.698;23.350;2023-04-16T02:14:29;8.18;;;3.67;;
78893;SDS011;68282;42.698;23.350;2023-04-16T02:16:55;10.50;;;4.25;;
78893;SDS011;68282;42.698;23.350;2023-04-16T02:19:20;10.45;;;3.90;;
78893;SDS011;68282;42.698;23.350;2023-04-16T03:27:19;9.80;;;5.15;;
78893;SDS011;68282;42.698;23.350;2023-04-16T03:29:44;12.05;;;5.90;;
78893;SDS011;68282;42.698;23.350;2023-04-16T03:32:10;8.85;;;5.10;;
78893;SDS011;68282;42.698;23.350;2023-04-16T03:34:36;12.10;;;6.20;;
78893;SDS011;68282;42.698;23.350;2023-04-16T03:37:02;11.80;;;5.90;;
78893;SDS011;68282;42.698;23.350;2023-04-16T03:39:29;12.77;;;5.63;;
78893;SDS011;68282;42.698;23.350;2023-04-16T03:41:55;13.30;;;6.05;;
78893;SDS011;68282;42.698;23.350;2023-04-16T03:44:20;9.77;;;5.00;;
78893;SDS011;68282;42.698;23.350;2023-04-16T03:46:45;13.65;;;5.47;;
78893;SDS011;68282;42.698;23.350;2023-04-16T03:49:11;8.95;;;5.65;;
78893;SDS011;68282;42.698;23.350;2023-04-16T03:51:36;13.13;;;5.20;;
78893;SDS011;68282;42.698;23.350;2023-04-16T03:54:02;11.40;;;5.72;;
78893;SDS011;68282;42.698;23.350;2023-04-16T03:56:27;8.93;;;5.40;;
78893;SDS011;68282;42.698;23.350;2023-04-16T03:58:52;9.18;;;4.70;;
78893;SDS011;68282;42.698;23.350;2023-04-16T04:01:18;7.32;;;4.97;;
78893;SDS011;68282;42.698;23.350;2023-04-16T04:03:43;7.47;;;4.47;;
78893;SDS011;68282;42.698;23.350;2023-04-16T04:06:09;9.60;;;5.00;;
78893;SDS011;68282;42.698;23.350;2023-04-16T04:08:34;10.55;;;5.25;;
78893;SDS011;68282;42.698;23.350;2023-04-16T04:11:00;8.23;;;4.47;;
78893;SDS011;68282;42.698;23.350;2023-04-16T04:13:25;7.80;;;4.32;;
78893;SDS011;68282;42.698;23.350;2023-04-16T04:15:50;7.78;;;4.00;;
78893;SDS011;68282;42.698;23.350;2023-04-16T04:18:16;6.97;;;4.47;;
78893;SDS011;68282;42.698;23.350;2023-04-16T04:20:43;7.45;;;4.45;;
78893;SDS011;68282;42.698;23.350;2023-04-16T04:23:08;7.35;;;3.83;;
78893;SDS011;68282;42.698;23.350;2023-04-16T04:25:34;12.45;;;3.90;;
78893;SDS011;68282;42.698;23.350;2023-04-16T04:27:59;7.85;;;4.78;;
78893;SDS011;68282;42.698;23.350;2023-04-16T04:30:25;8.30;;;3.80;;
78893;SDS011;68282;42.698;23.350;2023-04-16T04:32:50;8.45;;;4.07;;
78893;SDS011;68282;42.698;23.350;2023-04-16T04:35:16;8.00;;;3.47;;
78893;SDS011;68282;42.698;23.350;2023-04-16T04:37:41;8.65;;;4.20;;
78893;SDS011;68282;42.698;23.350;2023-04-16T04:40:07;7.40;;;3.75;;
78893;SDS011;68282;42.698;23.350;2023-04-16T04:42:32;7.72;;;4.13;;
78893;SDS011;68282;42.698;23.350;2023-04-16T04:44:58;4.95;;;3.22;;
78893;SDS011;68282;42.698;23.350;2023-04-16T04:47:23;6.88;;;3.47;;
78893;SDS011;68282;42.698;23.350;2023-04-16T04:49:49;5.93;;;3.42;;
78893;SDS011;68282;42.698;23.350;2023-04-16T04:52:14;9.30;;;3.33;;
78893;SDS011;68282;42.698;23.350;2023-04-16T04:54:40;8.93;;;3.80;;
78893;SDS011;68282;42.698;23.350;2023-04-16T04:57:06;6.28;;;3.40;;
78893;SDS011;68282;42.698;23.350;2023-04-16T04:59:32;7.40;;;3.50;;
78893;SDS011;68282;42.698;23.350;2023-04-16T05:01:57;5.50;;;3.47;;
78893;SDS011;68282;42.698;23.350;2023-04-16T05:04:23;5.80;;;3.40;;
78893;SDS011;68282;42.698;23.350;2023-04-16T05:06:48;6.15;;;3.63;;
78893;SDS011;68282;42.698;23.350;2023-04-16T05:09:14;5.38;;;3.08;;
78893;SDS011;68282;42.698;23.350;2023-04-16T05:11:40;6.47;;;3.88;;
78893;SDS011;68282;42.698;23.350;2023-04-16T05:14:06;7.63;;;3.72;;
78893;SDS011;68282;42.698;23.350;2023-04-16T05:16:34;7.80;;;3.72;;
78893;SDS011;68282;42.698;23.350;2023-04-16T05:19:00;8.25;;;4.45;;
78893;SDS011;68282;42.698;23.350;2023-04-16T05:21:27;7.10;;;3.90;;
78893;SDS011;68282;42.698;23.350;2023-04-16T05:23:53;9.60;;;4.50;;
78893;SDS011;68282;42.698;23.350;2023-04-16T05:26:18;7.80;;;4.35;;
78893;SDS011;68282;42.698;23.350;2023-04-16T05:28:44;9.05;;;4.10;;
78893;SDS011;68282;42.698;23.350;2023-04-16T05:31:09;7.40;;;4.63;;
78893;SDS011;68282;42.698;23.350;2023-04-16T05:33:34;8.50;;;4.72;;
78893;SDS011;68282;42.698;23.350;2023-04-16T05:36:00;15.10;;;5.18;;
78893;SDS011;68282;42.698;23.350;2023-04-16T05:38:25;8.63;;;4.80;;
78893;SDS011;68282;42.698;23.350;2023-04-16T05:40:51;8.77;;;4.55;;
78893;SDS011;68282;42.698;23.350;2023-04-16T05:43:16;7.93;;;3.83;;
78893;SDS011;68282;42.698;23.350;2023-04-16T05:45:42;10.57;;;4.28;;
78893;SDS011;68282;42.698;23.350;2023-04-16T05:48:07;8.02;;;4.50;;
78893;SDS011;68282;42.698;23.350;2023-04-16T05:50:33;15.88;;;6.43;;
78893;SDS011;68282;42.698;23.350;2023-04-16T05:52:59;9.13;;;5.20;;
78893;SDS011;68282;42.698;23.350;2023-04-16T05:55:25;9.75;;;4.78;;
78893;SDS011;68282;42.698;23.350;2023-04-16T05:57:50;11.25;;;5.00;;
78893;SDS011;68282;42.698;23.350;2023-04-16T06:00:16;9.38;;;5.13;;
78893;SDS011;68282;42.698;23.350;2023-04-16T06:02:41;11.13;;;5.25;;
78893;SDS011;68282;42.698;23.350;2023-04-16T06:05:07;9.27;;;4.47;;
78893;SDS011;68282;42.698;23.350;2023-04-16T06:07:32;11.10;;;4.38;;
78893;SDS011;68282;42.698;23.350;2023-04-16T06:09:57;9.35;;;4.63;;
78893;SDS011;68282;42.698;23.350;2023-04-16T06:12:23;6.80;;;4.07;;
78893;SDS011;68282;42.698;23.350;2023-04-16T06:14:48;9.55;;;4.70;;
78893;SDS011;68282;42.698;23.350;2023-04-16T06:17:14;7.65;;;4.10;;
78893;SDS011;68282;42.698;23.350;2023-04-16T06:19:39;9.10;;;4.53;;
78893;SDS011;68282;42.698;23.350;2023-04-16T06:22:05;7.90;;;4.10;;
78893;SDS011;68282;42.698;23.350;2023-04-16T06:24:30;7.35;;;4.20;;
78893;SDS011;68282;42.698;23.350;2023-04-16T06:26:56;7.97;;;4.53;;
78893;SDS011;68282;42.698;23.350;2023-04-16T06:29:21;9.02;;;4.93;;
78893;SDS011;68282;42.698;23.350;2023-04-16T06:31:47;9.25;;;5.38;;
78893;SDS011;68282;42.698;23.350;2023-04-16T06:34:13;8.75;;;5.32;;
78893;SDS011;68282;42.698;23.350;2023-04-16T06:36:40;11.82;;;5.32;;
78893;SDS011;68282;42.698;23.350;2023-04-16T06:39:05;13.25;;;5.90;;
78893;SDS011;68282;42.698;23.350;2023-04-16T06:41:31;11.27;;;5.10;;
78893;SDS011;68282;42.698;23.350;2023-04-16T06:43:56;14.60;;;5.25;;
78893;SDS011;68282;42.698;23.350;2023-04-16T06:46:22;13.60;;;6.90;;
78893;SDS011;68282;42.698;23.350;2023-04-16T06:48:47;11.13;;;6.40;;
78893;SDS011;68282;42.698;23.350;2023-04-16T06:51:13;8.23;;;4.70;;
78893;SDS011;68282;42.698;23.350;2023-04-16T06:53:38;7.93;;;4.40;;
78893;SDS011;68282;42.698;23.350;2023-04-16T06:56:04;8.88;;;3.78;;
78893;SDS011;68282;42.698;23.350;2023-04-16T06:58:30;6.18;;;2.90;;
78893;SDS011;68282;42.698;23.350;2023-04-16T07:00:55;5.18;;;2.78;;
78893;SDS011;68282;42.698;23.350;2023-04-16T07:03:21;7.60;;;2.83;;
78893;SDS011;68282;42.698;23.350;2023-04-16T07:05:46;7.38;;;2.88;;
78893;SDS011;68282;42.698;23.350;2023-04-16T07:08:12;6.18;;;3.30;;
78893;SDS011;68282;42.698;23.350;2023-04-16T07:10:37;7.82;;;3.30;;
78893;SDS011;68282;42.698;23.350;2023-04-16T07:13:03;12.77;;;4.20;;
78893;SDS011;68282;42.698;23.350;2023-04-16T07:15:28;5.28;;;3.15;;
78893;SDS011;68282;42.698;23.350;2023-04-16T07:17:53;4.85;;;2.63;;
78893;SDS011;68282;42.698;23.350;2023-04-16T07:20:19;5.82;;;3.08;;
78893;SDS011;68282;42.698;23.350;2023-04-16T07:22:45;5.15;;;3.20;;
78893;SDS011;68282;42.698;23.350;2023-04-16T07:25:10;15.63;;;8.25;;
78893;SDS011;68282;42.698;23.350;2023-04-16T07:27:36;16.35;;;9.18;;
78893;SDS011;68282;42.698;23.350;2023-04-16T07:30:01;13.75;;;8.73;;
78893;SDS011;68282;42.698;23.350;2023-04-16T07:32:28;35.28;;;24.00;;
78893;SDS011;68282;42.698;23.350;2023-04-16T07:34:53;17.77;;;10.68;;
78893;SDS011;68282;42.698;23.350;2023-04-16T07:37:20;11.52;;;7.35;;
78893;SDS011;68282;42.698;23.350;2023-04-16T07:39:45;10.60;;;5.40;;
78893;SDS011;68282;42.698;23.350;2023-04-16T07:42:11;20.05;;;13.90;;
78893;SDS011;68282;42.698;23.350;2023-04-16T07:44:36;7.45;;;3.85;;
78893;SDS011;68282;42.698;23.350;2023-04-16T07:47:02;7.18;;;3.33;;
78893;SDS011;68282;42.698;23.350;2023-04-16T07:49:27;5.60;;;2.95;;
78893;SDS011;68282;42.698;23.350;2023-04-16T07:51:53;6.25;;;3.15;;
78893;SDS011;68282;42.698;23.350;2023-04-16T07:54:18;6.13;;;3.80;;
78893;SDS011;68282;42.698;23.350;2023-04-16T07:56:44;6.65;;;3.22;;
78893;SDS011;68282;42.698;23.350;2023-04-16T07:59:10;8.18;;;4.28;;
78893;SDS011;68282;42.698;23.350;2023-04-16T08:01:35;6.15;;;3.50;;
78893;SDS011;68282;42.698;23.350;2023-04-16T08:04:00;6.40;;;3.47;;
78893;SDS011;68282;42.698;23.350;2023-04-16T08:06:26;14.82;;;4.63;;
78893;SDS011;68282;42.698;23.350;2023-04-16T08:08:51;6.07;;;3.60;;
78893;SDS011;68282;42.698;23.350;2023-04-16T08:11:17;7.78;;;4.10;;
78893;SDS011;68282;42.698;23.350;2023-04-16T08:13:42;9.80;;;3.70;;
78893;SDS011;68282;42.698;23.350;2023-04-16T08:16:08;7.28;;;3.53;;
78893;SDS011;68282;42.698;23.350;2023-04-16T08:18:33;7.22;;;3.30;;
78893;SDS011;68282;42.698;23.350;2023-04-16T08:20:59;8.98;;;3.28;;
78893;SDS011;68282;42.698;23.350;2023-04-16T08:23:24;6.82;;;3.60;;
78893;SDS011;68282;42.698;23.350;2023-04-16T08:25:50;6.97;;;3.70;;
78893;SDS011;68282;42.698;23.350;2023-04-16T08:28:15;6.25;;;2.85;;
78893;SDS011;68282;42.698;23.350;2023-04-16T08:30:41;4.70;;;2.65;;
78893;SDS011;68282;42.698;23.350;2023-04-16T08:33:06;5.65;;;3.28;;
78893;SDS011;68282;42.698;23.350;2023-04-16T08:35:32;6.10;;;2.92;;
78893;SDS011;68282;42.698;23.350;2023-04-16T08:37:58;6.65;;;2.90;;
78893;SDS011;68282;42.698;23.350;2023-04-16T08:40:25;5.35;;;3.13;;
78893;SDS011;68282;42.698;23.350;2023-04-16T08:42:57;5.43;;;2.75;;
78893;SDS011;68282;42.698;23.350;2023-04-16T08:45:24;9.10;;;3.08;;
78893;SDS011;68282;42.698;23.350;2023-04-16T08:47:51;4.80;;;2.80;;
78893;SDS011;68282;42.698;23.350;2023-04-16T08:50:26;5.03;;;2.30;;
78893;SDS011;68282;42.698;23.350;2023-04-16T08:52:53;6.32;;;2.88;;
78893;SDS011;68282;42.698;23.350;2023-04-16T08:55:29;6.68;;;2.65;;
78893;SDS011;68282;42.698;23.350;2023-04-16T08:57:59;8.88;;;2.53;;
78893;SDS011;68282;42.698;23.350;2023-04-16T09:00:28;3.75;;;2.22;;
78893;SDS011;68282;42.698;23.350;2023-04-16T09:02:55;4.80;;;2.45;;
78893;SDS011;68282;42.698;23.350;2023-04-16T09:05:21;3.65;;;1.80;;
78893;SDS011;68282;42.698;23.350;2023-04-16T09:07:49;4.78;;;2.83;;
78893;SDS011;68282;42.698;23.350;2023-04-16T09:10:17;4.72;;;2.45;;
78893;SDS011;68282;42.698;23.350;2023-04-16T09:12:44;4.90;;;1.98;;
78893;SDS011;68282;42.698;23.350;2023-04-16T09:15:10;5.78;;;2.50;;
78893;SDS011;68282;42.698;23.350;2023-04-16T09:17:36;8.00;;;2.92;;
78893;SDS011;68282;42.698;23.350;2023-04-16T09:20:03;4.57;;;2.30;;
78893;SDS011;68282;42.698;23.350;2023-04-16T09:22:30;6.45;;;2.95;;
78893;SDS011;68282;42.698;23.350;2023-04-16T09:24:55;4.45;;;2.40;;
78893;SDS011;68282;42.698;23.350;2023-04-16T09:27:21;6.93;;;2.60;;
78893;SDS011;68282;42.698;23.350;2023-04-16T09:29:47;4.40;;;2.40;;
78893;SDS011;68282;42.698;23.350;2023-04-16T09:32:13;3.92;;;2.13;;
78893;SDS011;68282;42.698;23.350;2023-04-16T09:34:57;5.68;;;2.00;;
78893;SDS011;68282;42.698;23.350;2023-04-16T09:37:28;5.75;;;2.58;;
78893;SDS011;68282;42.698;23.350;2023-04-16T09:40:01;3.15;;;2.22;;
78893;SDS011;68282;42.698;23.350;2023-04-16T09:42:31;5.82;;;3.88;;
78893;SDS011;68282;42.698;23.350;2023-04-16T09:44:59;5.63;;;2.20;;
78893;SDS011;68282;42.698;23.350;2023-04-16T09:47:25;6.30;;;2.08;;
78893;SDS011;68282;42.698;23.350;2023-04-16T09:50:02;5.80;;;2.67;;
78893;SDS011;68282;42.698;23.350;2023-04-16T09:52:28;6.72;;;2.40;;
78893;SDS011;68282;42.698;23.350;2023-04-16T09:54:53;3.92;;;2.25;;
78893;SDS011;68282;42.698;23.350;2023-04-16T09:57:22;3.90;;;2.13;;
78893;SDS011;68282;42.698;23.350;2023-04-16T10:00:09;4.55;;;2.47;;
78893;SDS011;68282;42.698;23.350;2023-04-16T10:02:35;5.47;;;2.22;;
78893;SDS011;68282;42.698;23.350;2023-04-16T10:05:05;3.72;;;2.22;;
78893;SDS011;68282;42.698;23.350;2023-04-16T10:07:34;4.47;;;2.30;;
78893;SDS011;68282;42.698;23.350;2023-04-16T10:10:00;3.95;;;2.22;;
78893;SDS011;68282;42.698;23.350;2023-04-16T10:12:27;5.80;;;2.20;;
78893;SDS011;68282;42.698;23.350;2023-04-16T10:14:54;5.40;;;2.55;;
78893;SDS011;68282;42.698;23.350;2023-04-16T10:17:19;4.72;;;2.45;;
78893;SDS011;68282;42.698;23.350;2023-04-16T10:19:45;4.03;;;2.63;;
78893;SDS011;68282;42.698;23.350;2023-04-16T10:22:11;6.00;;;2.20;;
78893;SDS011;68282;42.698;23.350;2023-04-16T10:24:37;9.15;;;4.47;;
78893;SDS011;68282;42.698;23.350;2023-04-16T10:27:05;5.32;;;2.28;;
78893;SDS011;68282;42.698;23.350;2023-04-16T10:29:30;6.20;;;2.40;;
78893;SDS011;68282;42.698;23.350;2023-04-16T10:31:57;4.75;;;2.30;;
78893;SDS011;68282;42.698;23.350;2023-04-16T10:34:23;5.75;;;2.70;;
78893;SDS011;68282;42.698;23.350;2023-04-16T10:36:51;16.33;;;9.05;;
78893;SDS011;68282;42.698;23.350;2023-04-16T10:39:19;7.22;;;3.97;;
78893;SDS011;68282;42.698;23.350;2023-04-16T10:41:46;6.68;;;3.65;;
78893;SDS011;68282;42.698;23.350;2023-04-16T10:44:16;6.40;;;3.03;;
78893;SDS011;68282;42.698;23.350;2023-04-16T10:46:43;4.20;;;2.15;;
78893;SDS011;68282;42.698;23.350;2023-04-16T10:49:17;4.97;;;2.25;;
78893;SDS011;68282;42.698;23.350;2023-04-16T10:52:07;3.60;;;1.92;;
78893;SDS011;68282;42.698;23.350;2023-04-16T10:54:37;3.17;;;1.60;;
78893;SDS011;68282;42.698;23.350;2023-04-16T10:57:07;5.78;;;2.40;;
78893;SDS011;68282;42.698;23.350;2023-04-16T10:59:34;4.18;;;1.90;;
78893;SDS011;68282;42.698;23.350;2023-04-16T11:02:10;3.15;;;1.73;;
78893;SDS011;68282;42.698;23.350;2023-04-16T11:04:38;5.97;;;2.33;;
78893;SDS011;68282;42.698;23.350;2023-04-16T11:07:14;6.13;;;2.13;;
78893;SDS011;68282;42.698;23.350;2023-04-16T11:09:44;6.25;;;3.65;;
78893;SDS011;68282;42.698;23.350;2023-04-16T11:12:24;5.05;;;2.40;;
78893;SDS011;68282;42.698;23.350;2023-04-16T11:14:58;6.80;;;4.65;;
78893;SDS011;68282;42.698;23.350;2023-04-16T11:17:27;6.90;;;3.20;;
78893;SDS011;68282;42.698;23.350;2023-04-16T11:19:54;5.00;;;2.35;;
78893;SDS011;68282;42.698;23.350;2023-04-16T11:22:20;3.85;;;2.17;;
78893;SDS011;68282;42.698;23.350;2023-04-16T11:24:46;5.85;;;3.33;;
78893;SDS011;68282;42.698;23.350;2023-04-16T11:27:12;4.13;;;2.05;;
78893;SDS011;68282;42.698;23.350;2023-04-16T11:29:39;3.63;;;1.85;;
78893;SDS011;68282;42.698;23.350;2023-04-16T11:32:05;5.47;;;2.05;;
78893;SDS011;68282;42.698;23.350;2023-04-16T11:34:31;3.72;;;1.88;;
78893;SDS011;68282;42.698;23.350;2023-04-16T11:36:57;6.15;;;2.13;;
78893;SDS011;68282;42.698;23.350;2023-04-16T11:39:22;2.90;;;1.73;;
78893;SDS011;68282;42.698;23.350;2023-04-16T11:41:49;4.75;;;2.22;;
78893;SDS011;68282;42.698;23.350;2023-04-16T11:46:49;6.10;;;2.72;;
78893;SDS011;68282;42.698;23.350;2023-04-16T11:49:16;4.80;;;2.10;;
78893;SDS011;68282;42.698;23.350;2023-04-16T11:51:45;5.13;;;2.80;;
78893;SDS011;68282;42.698;23.350;2023-04-16T11:54:23;6.05;;;2.50;;
78893;SDS011;68282;42.698;23.350;2023-04-16T11:56:51;3.15;;;1.77;;
78893;SDS011;68282;42.698;23.350;2023-04-16T11:59:21;2.83;;;1.85;;
78893;SDS011;68282;42.698;23.350;2023-04-16T12:01:53;3.30;;;1.80;;
78893;SDS011;68282;42.698;23.350;2023-04-16T12:04:20;4.15;;;1.80;;
78893;SDS011;68282;42.698;23.350;2023-04-16T12:09:29;3.92;;;2.05;;
78893;SDS011;68282;42.698;23.350;2023-04-16T12:11:54;2.97;;;1.67;;
78893;SDS011;68282;42.698;23.350;2023-04-16T12:14:21;4.13;;;1.60;;
78893;SDS011;68282;42.698;23.350;2023-04-16T12:16:47;4.85;;;2.80;;
78893;SDS011;68282;42.698;23.350;2023-04-16T12:19:12;8.45;;;2.35;;
78893;SDS011;68282;42.698;23.350;2023-04-16T12:21:39;7.15;;;1.95;;
78893;SDS011;68282;42.698;23.350;2023-04-16T12:24:05;7.97;;;2.10;;
78893;SDS011;68282;42.698;23.350;2023-04-16T12:26:44;3.78;;;1.88;;
78893;SDS011;68282;42.698;23.350;2023-04-16T12:29:14;3.42;;;1.85;;
78893;SDS011;68282;42.698;23.350;2023-04-16T12:31:44;5.25;;;1.92;;
78893;SDS011;68282;42.698;23.350;2023-04-16T12:34:11;5.13;;;1.90;;
78893;SDS011;68282;42.698;23.350;2023-04-16T12:36:39;5.75;;;1.73;;
78893;SDS011;68282;42.698;23.350;2023-04-16T12:39:04;2.42;;;1.60;;
78893;SDS011;68282;42.698;23.350;2023-04-16T12:41:31;2.58;;;1.65;;
78893;SDS011;68282;42.698;23.350;2023-04-16T12:44:07;8.02;;;1.85;;
78893;SDS011;68282;42.698;23.350;2023-04-16T12:46:36;4.97;;;2.25;;
78893;SDS011;68282;42.698;23.350;2023-04-16T12:49:02;3.55;;;1.73;;
78893;SDS011;68282;42.698;23.350;2023-04-16T12:51:27;3.92;;;1.70;;
78893;SDS011;68282;42.698;23.350;2023-04-16T12:53:53;2.92;;;1.55;;
78893;SDS011;68282;42.698;23.350;2023-04-16T12:56:19;7.03;;;2.40;;
78893;SDS011;68282;42.698;23.350;2023-04-16T12:58:45;4.53;;;2.10;;
78893;SDS011;68282;42.698;23.350;2023-04-16T13:01:10;5.78;;;1.80;;
78893;SDS011;68282;42.698;23.350;2023-04-16T13:03:36;4.38;;;2.38;;
78893;SDS011;68282;42.698;23.350;2023-04-16T13:06:02;5.15;;;2.53;;
78893;SDS011;68282;42.698;23.350;2023-04-16T13:08:28;3.80;;;2.10;;
78893;SDS011;68282;42.698;23.350;2023-04-16T13:10:54;3.45;;;1.90;;
78893;SDS011;68282;42.698;23.350;2023-04-16T13:13:19;4.32;;;1.70;;
78893;SDS011;68282;42.698;23.350;2023-04-16T13:15:45;2.55;;;1.40;;
78893;SDS011;68282;42.698;23.350;2023-04-16T13:18:10;3.88;;;1.75;;
78893;SDS011;68282;42.698;23.350;2023-04-16T13:20:35;4.20;;;1.90;;
78893;SDS011;68282;42.698;23.350;2023-04-16T13:23:01;5.38;;;2.95;;
78893;SDS011;68282;42.698;23.350;2023-04-16T13:25:29;5.50;;;2.63;;
78893;SDS011;68282;42.698;23.350;2023-04-16T13:27:55;3.92;;;2.25;;
78893;SDS011;68282;42.698;23.350;2023-04-16T13:30:20;5.70;;;2.20;;
78893;SDS011;68282;42.698;23.350;2023-04-16T13:32:45;6.22;;;3.58;;
78893;SDS011;68282;42.698;23.350;2023-04-16T13:35:11;4.78;;;1.90;;
78893;SDS011;68282;42.698;23.350;2023-04-16T13:37:36;3.50;;;2.03;;
78893;SDS011;68282;42.698;23.350;2023-04-16T13:40:04;3.55;;;1.83;;
78893;SDS011;68282;42.698;23.350;2023-04-16T13:42:30;5.28;;;2.20;;
78893;SDS011;68282;42.698;23.350;2023-04-16T13:44:56;3.45;;;2.00;;
78893;SDS011;68282;42.698;23.350;2023-04-16T13:47:22;3.85;;;2.17;;
78893;SDS011;68282;42.698;23.350;2023-04-16T13:49:48;5.80;;;2.03;;
78893;SDS011;68282;42.698;23.350;2023-04-16T13:52:13;3.92;;;1.90;;
78893;SDS011;68282;42.698;23.350;2023-04-16T13:54:38;7.05;;;3.65;;
78893;SDS011;68282;42.698;23.350;2023-04-16T13:57:04;3.88;;;2.05;;
78893;SDS011;68282;42.698;23.350;2023-04-16T13:59:30;3.47;;;1.70;;
78893;SDS011;68282;42.698;23.350;2023-04-16T14:01:56;2.75;;;1.63;;
78893;SDS011;68282;42.698;23.350;2023-04-16T14:04:21;5.18;;;1.95;;
78893;SDS011;68282;42.698;23.350;2023-04-16T14:06:48;3.70;;;1.80;;
78893;SDS011;68282;42.698;23.350;2023-04-16T14:09:13;3.55;;;1.83;;
78893;SDS011;68282;42.698;23.350;2023-04-16T14:11:39;4.22;;;2.17;;
78893;SDS011;68282;42.698;23.350;2023-04-16T14:14:05;6.25;;;2.40;;
78893;SDS011;68282;42.698;23.350;2023-04-16T14:16:30;4.72;;;2.15;;
78893;SDS011;68282;42.698;23.350;2023-04-16T14:18:56;6.13;;;2.80;;
78893;SDS011;68282;42.698;23.350;2023-04-16T14:21:21;6.63;;;2.72;;
78893;SDS011;68282;42.698;23.350;2023-04-16T14:23:47;4.95;;;2.70;;
78893;SDS011;68282;42.698;23.350;2023-04-16T14:26:12;4.75;;;2.80;;
78893;SDS011;68282;42.698;23.350;2023-04-16T14:28:38;6.60;;;2.47;;
78893;SDS011;68282;42.698;23.350;2023-04-16T14:31:04;6.28;;;2.70;;
78893;SDS011;68282;42.698;23.350;2023-04-16T14:33:30;4.95;;;2.55;;
78893;SDS011;68282;42.698;23.350;2023-04-16T14:35:56;6.10;;;2.60;;
78893;SDS011;68282;42.698;23.350;2023-04-16T14:38:22;5.75;;;2.33;;
78893;SDS011;68282;42.698;23.350;2023-04-16T14:40:47;6.53;;;3.03;;
78893;SDS011;68282;42.698;23.350;2023-04-16T14:43:13;7.68;;;4.50;;
78893;SDS011;68282;42.698;23.350;2023-04-16T14:45:38;4.95;;;2.50;;
78893;SDS011;68282;42.698;23.350;2023-04-16T14:48:04;5.88;;;2.88;;
78893;SDS011;68282;42.698;23.350;2023-04-16T14:50:30;4.95;;;2.70;;
78893;SDS011;68282;42.698;23.350;2023-04-16T14:52:55;8.55;;;3.75;;
78893;SDS011;68282;42.698;23.350;2023-04-16T14:55:21;7.90;;;3.78;;
78893;SDS011;68282;42.698;23.350;2023-04-16T14:57:46;7.20;;;3.28;;
78893;SDS011;68282;42.698;23.350;2023-04-16T15:00:12;6.20;;;2.75;;
78893;SDS011;68282;42.698;23.350;2023-04-16T15:02:41;7.68;;;4.50;;
78893;SDS011;68282;42.698;23.350;2023-04-16T15:05:06;5.50;;;3.70;;
78893;SDS011;68282;42.698;23.350;2023-04-16T15:07:34;4.45;;;2.72;;
78893;SDS011;68282;42.698;23.350;2023-04-16T15:10:00;6.35;;;3.28;;
78893;SDS011;68282;42.698;23.350;2023-04-16T15:12:26;7.80;;;3.42;;
78893;SDS011;68282;42.698;23.350;2023-04-16T15:14:51;6.65;;;3.20;;
78893;SDS011;68282;42.698;23.350;2023-04-16T15:17:17;5.25;;;3.15;;
78893;SDS011;68282;42.698;23.350;2023-04-16T15:19:43;6.43;;;3.45;;
78893;SDS011;68282;42.698;23.350;2023-04-16T15:22:08;9.18;;;4.35;;
78893;SDS011;68282;42.698;23.350;2023-04-16T15:24:34;11.93;;;3.75;;
78893;SDS011;68282;42.698;23.350;2023-04-16T15:26:59;4.32;;;3.00;;
78893;SDS011;68282;42.698;23.350;2023-04-16T15:29:26;7.45;;;3.10;;
78893;SDS011;68282;42.698;23.350;2023-04-16T15:31:52;6.70;;;3.60;;
78893;SDS011;68282;42.698;23.350;2023-04-16T15:34:17;4.72;;;2.97;;
78893;SDS011;68282;42.698;23.350;2023-04-16T15:36:43;5.43;;;3.20;;
78893;SDS011;68282;42.698;23.350;2023-04-16T15:39:08;6.32;;;2.95;;